createdAt,value
2022-11-13T00:02:34.284Z,5.95
2022-11-13T00:05:35.651Z,6.20
2022-11-13T00:08:37.372Z,5.65
2022-11-13T00:11:39.004Z,5.90
2022-11-13T00:14:41.465Z,5.80
2022-11-13T00:17:42.320Z,6.90
2022-11-13T00:20:43.504Z,6.63
2022-11-13T00:23:44.823Z,6.88
2022-11-13T00:26:45.872Z,7.05
2022-11-13T00:29:48.475Z,6.93
2022-11-13T00:32:49.584Z,6.68
2022-11-13T00:35:50.670Z,7.00
2022-11-13T00:38:52.859Z,6.25
2022-11-13T00:41:54.182Z,6.53
2022-11-13T00:44:56.613Z,6.55
2022-11-13T00:47:57.770Z,5.80
2022-11-13T00:50:58.847Z,6.20
2022-11-13T00:54:00.355Z,6.00
2022-11-13T00:57:01.707Z,6.38
2022-11-13T01:00:05.086Z,5.95
2022-11-13T01:03:06.729Z,6.35
2022-11-13T01:06:11.622Z,6.22
2022-11-13T01:09:12.962Z,5.60
2022-11-13T01:12:14.268Z,6.28
2022-11-13T01:15:16.730Z,6.00
2022-11-13T01:18:18.118Z,6.78
2022-11-13T01:21:20.592Z,5.93
2022-11-13T01:24:21.555Z,6.30
2022-11-13T01:27:22.971Z,6.07
2022-11-13T01:30:25.566Z,5.78
2022-11-13T01:33:26.474Z,6.05
2022-11-13T01:36:28.597Z,5.85
2022-11-13T01:39:29.597Z,6.25
2022-11-13T01:42:32.834Z,6.45
2022-11-13T01:46:07.189Z,5.28
2022-11-13T01:49:19.038Z,5.93
2022-11-13T01:52:21.240Z,5.85
2022-11-13T01:55:22.352Z,6.00
2022-11-13T01:58:23.762Z,5.97
2022-11-13T02:01:24.885Z,6.13
2022-11-13T02:04:27.691Z,6.10
2022-11-13T02:07:29.143Z,5.80
2022-11-13T02:10:30.775Z,5.75
2022-11-13T02:13:32.051Z,6.05
2022-11-13T02:16:33.558Z,6.70
2022-11-13T02:19:37.906Z,6.88
2022-11-13T02:22:42.511Z,7.13
2022-11-13T02:25:46.135Z,7.07
2022-11-13T02:28:47.358Z,7.20
2022-11-13T02:31:48.666Z,7.03
2022-11-13T02:34:50.077Z,6.78
2022-11-13T02:37:51.523Z,6.78
2022-11-13T02:40:53.892Z,6.72
2022-11-13T02:43:54.945Z,6.43
2022-11-13T02:46:56.285Z,6.30
2022-11-13T02:49:57.329Z,5.93
2022-11-13T02:52:58.599Z,6.07
2022-11-13T02:56:01.445Z,6.80
2022-11-13T02:59:02.987Z,6.70
2022-11-13T03:02:04.083Z,6.38
2022-11-13T03:05:12.073Z,6.32
2022-11-13T03:08:14.453Z,6.35
2022-11-13T03:11:17.352Z,6.40
2022-11-13T03:14:18.787Z,6.40
2022-11-13T03:17:19.827Z,6.82
2022-11-13T03:20:20.965Z,7.30
2022-11-13T03:23:22.569Z,6.70
2022-11-13T03:26:25.410Z,7.18
2022-11-13T03:29:26.712Z,7.03
2022-11-13T03:32:28.102Z,6.88
2022-11-13T03:35:31.803Z,6.97
2022-11-13T03:38:35.423Z,6.78
2022-11-13T03:41:38.022Z,6.72
2022-11-13T03:44:39.451Z,7.50
2022-11-13T03:47:40.931Z,7.45
2022-11-13T03:50:45.594Z,7.53
2022-11-13T03:53:46.770Z,7.13
2022-11-13T03:56:49.456Z,6.57
2022-11-13T03:59:50.714Z,7.28
2022-11-13T04:02:52.165Z,7.63
2022-11-13T04:05:53.165Z,6.72
2022-11-13T04:08:54.823Z,7.38
2022-11-13T04:11:57.417Z,7.07
2022-11-13T04:14:58.521Z,6.55
2022-11-13T04:17:59.919Z,6.50
2022-11-13T04:21:01.473Z,6.78
2022-11-13T04:24:02.762Z,6.78
2022-11-13T04:27:05.445Z,6.68
2022-11-13T04:30:07.544Z,6.55
2022-11-13T04:33:08.843Z,6.57
2022-11-13T04:36:10.543Z,6.57
2022-11-13T04:39:11.982Z,6.30
2022-11-13T04:42:32.009Z,7.05
2022-11-13T04:45:33.493Z,6.95
2022-11-13T04:48:34.553Z,6.80
2022-11-13T04:51:35.882Z,7.28
2022-11-13T04:54:37.004Z,6.47
2022-11-13T04:57:39.685Z,7.00
2022-11-13T05:00:41.160Z,6.82
2022-11-13T05:03:42.206Z,6.50
2022-11-13T05:06:44.149Z,6.95
2022-11-13T05:09:45.490Z,6.78
2022-11-13T05:12:48.448Z,6.78
2022-11-13T05:15:49.728Z,7.22
2022-11-13T05:18:50.821Z,6.80
2022-11-13T05:21:52.089Z,7.13
2022-11-13T05:24:53.002Z,7.38
2022-11-13T05:27:55.686Z,7.70
2022-11-13T05:31:03.475Z,7.55
2022-11-13T05:34:06.063Z,8.00
2022-11-13T05:37:07.547Z,7.30
2022-11-13T05:40:09.163Z,7.43
2022-11-13T05:43:12.070Z,7.55
2022-11-13T05:46:14.162Z,7.95
2022-11-13T05:49:15.601Z,7.65
2022-11-13T05:52:17.031Z,8.13
2022-11-13T05:55:22.194Z,7.85
2022-11-13T05:58:26.627Z,8.20
2022-11-13T06:01:29.201Z,7.47
2022-11-13T06:04:30.745Z,8.52
2022-11-13T06:07:32.076Z,7.50
2022-11-13T06:10:33.183Z,8.32
2022-11-13T06:13:36.235Z,8.25
2022-11-13T06:16:38.296Z,8.18
2022-11-13T06:19:39.338Z,7.97
2022-11-13T06:22:40.662Z,8.77
2022-11-13T06:25:41.734Z,7.68
2022-11-13T06:28:44.227Z,8.43
2022-11-13T06:31:45.581Z,8.57
2022-11-13T06:34:46.579Z,7.93
2022-11-13T06:37:47.836Z,8.23
2022-11-13T06:40:48.886Z,8.50
2022-11-13T06:43:51.864Z,7.90
2022-11-13T06:46:52.957Z,8.77
2022-11-13T06:49:53.875Z,8.65
2022-11-13T06:52:55.473Z,8.25
2022-11-13T06:55:56.817Z,7.80
2022-11-13T06:58:59.344Z,8.43
2022-11-13T07:02:00.385Z,9.00
2022-11-13T07:05:01.479Z,8.38
2022-11-13T07:08:02.702Z,7.68
2022-11-13T07:11:03.903Z,8.23
2022-11-13T07:14:06.208Z,8.25
2022-11-13T07:17:10.320Z,7.70
2022-11-13T07:20:12.106Z,8.55
2022-11-13T07:23:13.091Z,8.23
2022-11-13T07:26:14.864Z,7.88
2022-11-13T07:29:17.923Z,8.52
2022-11-13T07:32:18.900Z,8.90
2022-11-13T07:35:20.043Z,8.43
2022-11-13T07:38:21.011Z,8.30
2022-11-13T07:41:22.337Z,8.50
2022-11-13T07:44:52.857Z,8.07
2022-11-13T07:47:46.025Z,8.45
2022-11-13T07:50:47.028Z,8.20
2022-11-13T07:53:48.137Z,8.45
2022-11-13T07:56:49.470Z,7.65
2022-11-13T07:59:51.918Z,8.18
2022-11-13T08:02:53.122Z,7.97
2022-11-13T08:05:54.775Z,8.63
2022-11-13T08:08:56.035Z,8.25
2022-11-13T08:11:57.347Z,8.60
2022-11-13T08:15:00.253Z,8.00
2022-11-13T08:18:02.290Z,8.27
2022-11-13T08:21:04.169Z,7.93
2022-11-13T08:24:05.653Z,8.40
2022-11-13T08:27:07.432Z,7.78
2022-11-13T08:30:10.889Z,8.77
2022-11-13T08:33:12.102Z,8.45
2022-11-13T08:36:13.384Z,7.80
2022-11-13T08:39:14.980Z,8.07
2022-11-13T08:42:16.123Z,8.10
2022-11-13T08:45:18.578Z,9.07
2022-11-13T08:48:19.984Z,8.30
2022-11-13T08:51:21.493Z,9.00
2022-11-13T08:54:22.690Z,8.63
2022-11-13T08:57:23.999Z,8.95
2022-11-13T09:00:27.483Z,8.30
2022-11-13T09:03:28.567Z,7.95
2022-11-13T09:06:29.871Z,8.65
2022-11-13T09:09:31.054Z,7.82
2022-11-13T09:12:32.262Z,8.65
2022-11-13T09:15:35.185Z,8.32
2022-11-13T09:18:37.618Z,7.88
2022-11-13T09:21:38.989Z,8.20
2022-11-13T09:24:40.628Z,8.43
2022-11-13T09:27:41.825Z,8.57
2022-11-13T09:30:43.354Z,7.70
2022-11-13T09:33:45.831Z,7.57
2022-11-13T09:36:46.984Z,6.95
2022-11-13T09:39:48.091Z,7.28
2022-11-13T09:42:49.460Z,8.50
2022-11-13T09:45:51.753Z,7.18
2022-11-13T09:48:56.648Z,7.55
2022-11-13T09:52:02.659Z,7.07
2022-11-13T09:55:07.230Z,7.47
2022-11-13T09:58:13.758Z,8.02
2022-11-13T10:01:17.387Z,8.50
2022-11-13T10:04:24.327Z,8.70
2022-11-13T10:07:33.213Z,8.85
2022-11-13T10:10:42.961Z,7.93
2022-11-13T10:13:46.258Z,9.40
2022-11-13T10:16:50.053Z,9.27
2022-11-13T10:19:55.357Z,9.02
2022-11-13T10:22:57.923Z,9.27
2022-11-13T10:26:06.832Z,9.45
2022-11-13T10:29:11.823Z,9.00
2022-11-13T10:32:17.419Z,9.32
2022-11-13T10:35:33.632Z,9.25
2022-11-13T10:38:38.568Z,8.65
2022-11-13T10:41:46.899Z,8.70
2022-11-13T10:44:53.651Z,9.00
2022-11-13T10:48:04.131Z,9.88
2022-11-13T10:51:21.014Z,9.10
2022-11-13T10:54:25.277Z,9.32
2022-11-13T10:57:30.147Z,9.50
2022-11-13T11:00:32.586Z,8.70
2022-11-13T11:03:33.917Z,8.48
2022-11-13T11:07:17.784Z,8.57
2022-11-13T11:09:58.612Z,9.45
2022-11-13T11:13:03.276Z,8.52
2022-11-13T11:16:05.859Z,8.38
2022-11-13T11:19:10.163Z,8.95
2022-11-13T11:22:15.404Z,8.80
2022-11-13T11:25:19.305Z,8.65
2022-11-13T11:28:26.725Z,8.07
2022-11-13T11:31:32.122Z,8.20
2022-11-13T11:34:36.662Z,7.47
2022-11-13T11:37:40.784Z,7.60
2022-11-13T11:40:43.766Z,6.95
2022-11-13T11:43:46.442Z,7.15
2022-11-13T11:46:47.610Z,6.65
2022-11-13T11:49:48.887Z,6.63
2022-11-13T11:52:55.714Z,6.30
2022-11-13T11:56:13.088Z,5.82
2022-11-13T11:59:21.013Z,6.40
2022-11-13T12:02:30.239Z,5.65
2022-11-13T12:05:36.404Z,6.10
2022-11-13T12:08:39.832Z,6.18
2022-11-13T12:11:45.639Z,5.90
2022-11-13T12:14:50.605Z,6.10
2022-11-13T12:17:55.339Z,6.10
2022-11-13T12:21:02.033Z,6.03
2022-11-13T12:24:10.209Z,5.90
2022-11-13T12:27:21.342Z,6.18
2022-11-13T12:30:23.716Z,5.68
2022-11-13T12:33:30.721Z,6.00
2022-11-13T12:36:32.004Z,5.95
2022-11-13T12:39:37.659Z,5.15
2022-11-13T12:42:43.653Z,4.85
2022-11-13T12:45:50.836Z,5.05
2022-11-13T12:48:52.437Z,5.38
2022-11-13T12:51:57.631Z,5.10
2022-11-13T12:55:06.558Z,5.05
2022-11-13T12:58:11.720Z,6.03
2022-11-13T13:01:16.050Z,5.60
2022-11-13T13:04:35.305Z,5.45
2022-11-13T13:07:47.513Z,5.88
2022-11-13T13:10:53.396Z,5.07
2022-11-13T13:14:01.215Z,5.30
2022-11-13T13:17:06.639Z,4.85
2022-11-13T13:20:28.735Z,5.28
2022-11-13T13:23:30.702Z,5.10
2022-11-13T13:26:32.093Z,5.32
2022-11-13T13:29:35.141Z,5.35
2022-11-13T13:32:41.651Z,4.97
2022-11-13T13:35:46.190Z,5.32
2022-11-13T13:38:52.531Z,5.60
2022-11-13T13:42:01.549Z,5.13
2022-11-13T13:45:27.494Z,5.53
2022-11-13T13:48:32.090Z,6.00
2022-11-13T13:51:35.698Z,6.05
2022-11-13T13:54:37.981Z,5.75
2022-11-13T13:57:41.583Z,5.75
2022-11-13T14:01:05.062Z,6.03
2022-11-13T14:04:07.764Z,6.43
2022-11-13T14:07:20.088Z,6.63
2022-11-13T14:10:22.527Z,7.60
2022-11-13T14:13:25.100Z,7.65
2022-11-13T14:16:26.245Z,8.15
2022-11-13T14:19:29.230Z,8.05
2022-11-13T14:22:30.508Z,9.48
2022-11-13T14:25:32.022Z,9.45
2022-11-13T14:28:35.229Z,10.13
2022-11-13T14:31:37.059Z,10.10
2022-11-13T14:34:43.902Z,9.43
2022-11-13T14:37:46.264Z,10.00
2022-11-13T14:40:48.741Z,10.15
2022-11-13T14:43:50.768Z,10.43
2022-11-13T14:46:59.397Z,10.82
2022-11-13T14:50:10.482Z,10.63
2022-11-13T14:53:12.036Z,10.43
2022-11-13T14:56:14.222Z,10.40
2022-11-13T14:59:19.769Z,10.90
2022-11-13T15:02:21.812Z,10.68
2022-11-13T15:05:24.430Z,9.98
2022-11-13T15:08:25.744Z,9.90
2022-11-13T15:11:27.872Z,9.38
2022-11-13T15:14:28.990Z,8.75
2022-11-13T15:17:31.607Z,8.00
2022-11-13T15:20:34.646Z,8.60
2022-11-13T15:23:36.104Z,8.27
2022-11-13T15:26:38.018Z,8.07
2022-11-13T15:29:39.779Z,7.53
2022-11-13T15:32:41.438Z,8.32
2022-11-13T15:35:44.268Z,7.60
2022-11-13T15:38:45.414Z,6.35
2022-11-13T15:41:47.173Z,6.03
2022-11-13T15:44:48.427Z,6.22
2022-11-13T15:47:49.564Z,5.85
2022-11-13T15:50:52.189Z,5.78
2022-11-13T15:53:56.175Z,5.82
2022-11-13T15:56:57.402Z,5.15
2022-11-13T15:59:58.998Z,4.18
2022-11-13T16:03:00.133Z,4.30
2022-11-13T16:06:03.253Z,4.38
2022-11-13T16:09:05.680Z,4.22
2022-11-13T16:12:07.250Z,3.80
2022-11-13T16:15:09.423Z,3.85
2022-11-13T16:18:14.574Z,3.83
2022-11-13T16:21:17.932Z,4.10
2022-11-13T16:24:22.925Z,3.83
2022-11-13T16:27:27.535Z,3.63
2022-11-13T16:30:31.423Z,3.83
2022-11-13T16:33:32.664Z,3.78
2022-11-13T16:36:35.273Z,3.30
2022-11-13T16:39:36.438Z,3.30
2022-11-13T16:42:38.063Z,3.22
2022-11-13T16:45:39.434Z,3.35
2022-11-13T16:48:41.929Z,3.78
2022-11-13T16:51:44.439Z,3.08
2022-11-13T16:54:46.061Z,3.50
2022-11-13T16:57:47.216Z,3.67
2022-11-13T17:00:48.312Z,3.55
2022-11-13T17:03:49.770Z,3.17
2022-11-13T17:06:56.570Z,3.40
2022-11-13T17:10:28.971Z,3.00
2022-11-13T17:13:20.593Z,3.35
2022-11-13T17:16:23.169Z,3.30
2022-11-13T17:19:24.623Z,2.70
2022-11-13T17:22:26.994Z,2.67
2022-11-13T17:25:28.728Z,2.72
2022-11-13T17:28:30.646Z,2.63
2022-11-13T17:31:32.007Z,2.80
2022-11-13T17:34:33.542Z,2.45
2022-11-13T17:37:36.460Z,2.30
2022-11-13T17:40:37.843Z,2.75
2022-11-13T17:43:40.165Z,2.92
2022-11-13T17:46:41.504Z,2.15
2022-11-13T17:49:42.590Z,2.50
2022-11-13T17:52:45.357Z,2.28
2022-11-13T17:55:53.564Z,2.35
2022-11-13T17:58:54.925Z,2.20
2022-11-13T18:01:56.312Z,2.17
2022-11-13T18:04:59.211Z,2.08
2022-11-13T18:08:02.371Z,2.47
2022-11-13T18:11:07.809Z,2.10
2022-11-13T18:14:09.988Z,2.20
2022-11-13T18:17:11.448Z,1.90
2022-11-13T18:20:12.764Z,1.85
2022-11-13T18:23:15.816Z,2.13
2022-11-13T18:26:18.208Z,2.30
2022-11-13T18:29:19.696Z,2.42
2022-11-13T18:32:21.230Z,2.40
2022-11-13T18:35:22.496Z,2.60
2022-11-13T18:38:25.599Z,2.90
2022-11-13T18:41:26.729Z,2.75
2022-11-13T18:44:27.766Z,2.97
2022-11-13T18:47:29.322Z,2.55
2022-11-13T18:50:30.601Z,2.35
2022-11-13T18:53:33.091Z,2.35
2022-11-13T18:56:35.049Z,2.42
2022-11-13T18:59:36.884Z,2.58
2022-11-13T19:02:37.954Z,2.60
2022-11-13T19:05:43.534Z,2.50
2022-11-13T19:08:46.547Z,2.70
2022-11-13T19:11:48.670Z,2.25
2022-11-13T19:14:49.908Z,2.92
2022-11-13T19:17:52.934Z,3.00
2022-11-13T19:20:54.471Z,2.38
2022-11-13T19:23:57.122Z,2.63
2022-11-13T19:26:58.370Z,2.72
2022-11-13T19:29:59.974Z,2.90
2022-11-13T19:33:01.175Z,2.92
2022-11-13T19:36:07.155Z,3.17
2022-11-13T19:39:10.758Z,2.92
2022-11-13T19:42:12.201Z,2.92
2022-11-13T19:45:13.921Z,3.17
2022-11-13T19:48:18.756Z,3.05
2022-11-13T19:51:21.298Z,3.45
2022-11-13T19:54:24.478Z,3.70
2022-11-13T19:57:25.666Z,3.10
2022-11-13T20:00:26.975Z,4.00
2022-11-13T20:03:28.363Z,3.70
2022-11-13T20:06:31.556Z,3.92
2022-11-13T20:09:34.420Z,4.05
2022-11-13T20:12:35.971Z,3.97
2022-11-13T20:15:37.187Z,4.20
2022-11-13T20:18:38.509Z,4.03
2022-11-13T20:21:40.877Z,4.30
2022-11-13T20:24:43.576Z,5.18
2022-11-13T20:27:47.498Z,4.90
2022-11-13T20:30:49.545Z,5.32
2022-11-13T20:33:52.394Z,5.30
2022-11-13T20:36:53.920Z,5.35
2022-11-13T20:39:57.301Z,6.07
2022-11-13T20:42:58.727Z,6.05
2022-11-13T20:46:03.590Z,6.70
2022-11-13T20:49:04.937Z,6.80
2022-11-13T20:52:07.072Z,7.28
2022-11-13T20:55:10.236Z,7.22
2022-11-13T20:58:11.629Z,7.70
2022-11-13T21:01:14.319Z,7.82
2022-11-13T21:04:15.825Z,7.60
2022-11-13T21:07:17.496Z,7.43
2022-11-13T21:10:20.457Z,8.15
2022-11-13T21:13:21.695Z,8.63
2022-11-13T21:16:23.232Z,7.65
2022-11-13T21:19:24.777Z,8.50
2022-11-13T21:22:25.831Z,8.90
2022-11-13T21:25:28.709Z,8.57
2022-11-13T21:28:33.636Z,8.25
2022-11-13T21:31:35.028Z,9.27
2022-11-13T21:34:36.188Z,9.27
2022-11-13T21:37:37.195Z,8.77
2022-11-13T21:40:39.704Z,9.38
2022-11-13T21:43:41.259Z,9.35
2022-11-13T21:46:43.054Z,9.10
2022-11-13T21:49:44.584Z,9.13
2022-11-13T21:52:46.151Z,10.02
2022-11-13T21:55:51.384Z,9.68
2022-11-13T21:58:52.655Z,9.20
2022-11-13T22:01:54.156Z,9.95
2022-11-13T22:04:55.666Z,9.88
2022-11-13T22:07:57.061Z,9.35
2022-11-13T22:10:59.427Z,9.90
2022-11-13T22:14:01.254Z,9.60
2022-11-13T22:17:02.765Z,9.60
2022-11-13T22:20:03.851Z,9.90
2022-11-13T22:23:06.105Z,9.90
2022-11-13T22:26:09.826Z,10.55
2022-11-13T22:29:10.916Z,10.45
2022-11-13T22:32:12.193Z,10.32
2022-11-13T22:35:13.370Z,10.77
2022-11-13T22:38:14.898Z,10.60
2022-11-13T22:41:22.836Z,9.95
2022-11-13T22:44:35.107Z,10.95
2022-11-13T22:47:45.857Z,10.00
2022-11-13T22:50:46.746Z,10.02
2022-11-13T22:53:49.359Z,9.43
2022-11-13T22:56:52.133Z,9.95
2022-11-13T22:59:53.156Z,10.13
2022-11-13T23:02:54.513Z,11.25
2022-11-13T23:05:55.808Z,10.98
2022-11-13T23:08:57.030Z,10.10
2022-11-13T23:11:59.544Z,10.05
2022-11-13T23:15:00.833Z,10.82
2022-11-13T23:18:07.186Z,10.23
2022-11-13T23:21:11.436Z,10.27
2022-11-13T23:24:12.730Z,10.88
2022-11-13T23:27:15.685Z,11.00
2022-11-13T23:30:16.829Z,10.52
2022-11-13T23:33:17.880Z,10.32
2022-11-13T23:36:19.298Z,10.90
2022-11-13T23:39:20.381Z,10.57
2022-11-13T23:42:45.705Z,10.88
2022-11-13T23:45:44.393Z,10.77
2022-11-13T23:48:45.670Z,10.70
2022-11-13T23:51:47.192Z,11.40
2022-11-13T23:54:48.318Z,11.45
2022-11-13T23:57:56.421Z,11.73
